Time;durP1;ratioP1;P1;durP2;ratioP2;P2;SDS_P1;SDS_P2;PMS_P1;PMS_P2;Temp;Humidity;BMP_temperature;BMP_pressure;BME280_temperature;BME280_humidity;BME280_pressure;Samples;Min_cycle;Max_cycle;Signal;HPM_P1;HPM_P2
2022/08/13 00:00:38;;;;;;;7.27;4.93;;;18.00;68.80;;;;;;5031633;28;20658;-73
2022/08/13 00:03:12;;;;;;;7.68;5.60;;;18.00;69.00;;;;;;5033407;28;20061;-73
2022/08/13 00:05:39;;;;;;;9.68;5.95;;;18.00;68.90;;;;;;5032586;28;20058;-73
2022/08/13 00:08:06;;;;;;;9.48;5.50;;;17.80;68.90;;;;;;5031718;28;20042;-73
2022/08/13 00:10:33;;;;;;;8.65;5.85;;;17.80;68.90;;;;;;5044745;28;20049;-73
2022/08/13 00:13:03;;;;;;;7.53;5.30;;;17.80;69.10;;;;;;5051791;28;20054;-74
2022/08/13 00:15:33;;;;;;;8.43;5.78;;;17.80;69.10;;;;;;5053045;28;20049;-73
2022/08/13 00:18:05;;;;;;;8.85;5.80;;;17.70;69.10;;;;;;5053212;28;20045;-73
2022/08/13 00:20:35;;;;;;;8.40;5.20;;;17.60;69.10;;;;;;5052908;28;20156;-73
2022/08/13 00:23:02;;;;;;;8.93;5.30;;;17.60;69.30;;;;;;5052125;28;20137;-73
2022/08/13 00:25:30;;;;;;;8.60;5.90;;;17.60;69.70;;;;;;5051075;28;20482;-73
2022/08/13 00:27:58;;;;;;;8.38;5.70;;;17.50;69.60;;;;;;5052660;28;20053;-73
2022/08/13 00:30:30;;;;;;;8.20;5.80;;;17.50;69.60;;;;;;5033716;28;20058;-73
2022/08/13 00:32:59;;;;;;;8.48;5.82;;;17.50;70.10;;;;;;5030334;28;20056;-73
2022/08/13 00:35:28;;;;;;;9.77;5.90;;;17.50;70.20;;;;;;5031554;28;20112;-73
2022/08/13 00:37:57;;;;;;;7.73;5.70;;;17.40;70.20;;;;;;5029589;28;20057;-73
2022/08/13 00:40:25;;;;;;;8.27;5.63;;;17.30;70.50;;;;;;5031083;28;20080;-73
2022/08/13 00:42:52;;;;;;;7.30;5.63;;;17.20;70.30;;;;;;5030114;28;20140;-73
2022/08/13 00:45:20;;;;;;;7.28;5.20;;;17.20;70.40;;;;;;5031488;28;20182;-73
2022/08/13 00:50:36;;;;;;;7.57;5.57;;;17.00;70.60;;;;;;5030754;28;20233;-73
2022/08/13 00:53:03;;;;;;;7.63;5.28;;;17.00;70.90;;;;;;5047950;28;20054;-73
2022/08/13 00:55:30;;;;;;;7.57;5.53;;;17.00;71.20;;;;;;5014912;28;20049;-73
2022/08/13 00:57:58;;;;;;;8.45;5.65;;;17.00;71.60;;;;;;5031772;28;20573;-73
2022/08/13 01:00:27;;;;;;;9.88;5.65;;;16.90;71.50;;;;;;5031035;28;20138;-73
2022/08/13 01:02:58;;;;;;;11.17;5.90;;;16.90;71.60;;;;;;5031432;28;20135;-73
2022/08/13 01:05:26;;;;;;;7.68;5.70;;;16.90;71.70;;;;;;5031302;28;20116;-73
2022/08/13 01:07:56;;;;;;;8.65;5.65;;;16.80;71.60;;;;;;5032657;28;20050;-74
2022/08/13 01:10:23;;;;;;;7.85;5.60;;;16.80;71.80;;;;;;5031131;28;20054;-73
2022/08/13 01:12:52;;;;;;;7.80;6.10;;;16.70;71.70;;;;;;5031440;28;20495;-73
2022/08/13 01:15:23;;;;;;;9.00;6.40;;;16.70;71.80;;;;;;5031456;28;20996;-73
2022/08/13 01:17:53;;;;;;;8.48;6.00;;;16.70;72.00;;;;;;5031135;28;20140;-73
2022/08/13 01:20:21;;;;;;;9.65;6.10;;;16.60;72.00;;;;;;5031898;28;20062;-73
2022/08/13 01:22:51;;;;;;;7.68;5.68;;;16.60;72.20;;;;;;5030965;28;20957;-73
2022/08/13 01:25:19;;;;;;;8.27;6.38;;;16.50;72.30;;;;;;5032225;28;20076;-73
2022/08/13 01:27:46;;;;;;;9.23;5.80;;;16.50;72.40;;;;;;5030641;28;20156;-73
2022/08/13 01:30:16;;;;;;;8.88;6.03;;;16.50;72.60;;;;;;5030449;28;20082;-73
2022/08/13 01:32:43;;;;;;;8.40;6.60;;;16.50;72.50;;;;;;5030739;28;20053;-73
2022/08/13 01:35:11;;;;;;;8.35;6.13;;;16.50;72.70;;;;;;5030965;28;20054;-73
2022/08/13 01:37:38;;;;;;;8.27;6.45;;;16.50;73.10;;;;;;5029740;28;20050;-73
2022/08/13 01:40:08;;;;;;;8.33;6.10;;;16.40;73.20;;;;;;5030581;28;20049;-73
2022/08/13 01:42:38;;;;;;;8.60;5.82;;;16.40;73.80;;;;;;5030483;28;20049;-73
2022/08/13 01:45:07;;;;;;;9.52;6.30;;;16.40;74.10;;;;;;5032242;28;20514;-73
2022/08/13 01:50:30;;;;;;;8.73;6.07;;;16.40;73.90;;;;;;5031625;28;20080;-73
2022/08/13 01:53:01;;;;;;;9.00;5.53;;;16.40;73.50;;;;;;5031749;28;20050;-73
2022/08/13 01:55:37;;;;;;;8.98;5.35;;;16.40;73.40;;;;;;5030859;28;20052;-73
2022/08/13 01:58:06;;;;;;;8.00;5.43;;;16.40;73.20;;;;;;5029725;28;20104;-73
2022/08/13 02:00:35;;;;;;;8.23;5.40;;;16.30;73.20;;;;;;5031726;28;20126;-74
2022/08/13 02:03:05;;;;;;;8.50;5.63;;;16.30;73.30;;;;;;5030559;28;20096;-73
2022/08/13 02:05:36;;;;;;;9.10;5.50;;;16.30;73.50;;;;;;5030406;28;20050;-73
2022/08/13 02:08:04;;;;;;;9.50;5.65;;;16.20;73.50;;;;;;5031793;28;20057;-73
2022/08/13 02:10:32;;;;;;;8.35;5.82;;;16.20;73.70;;;;;;5031185;28;20053;-73
2022/08/13 02:13:01;;;;;;;7.82;5.50;;;16.20;73.70;;;;;;5029278;28;20053;-73
2022/08/13 02:15:28;;;;;;;7.90;5.60;;;16.10;73.80;;;;;;5047041;28;20050;-73
2022/08/13 02:17:55;;;;;;;8.03;5.13;;;16.10;73.60;;;;;;5046617;28;20475;-73
2022/08/13 02:20:22;;;;;;;9.45;5.55;;;16.10;73.70;;;;;;5031187;28;20062;-73
2022/08/13 02:22:50;;;;;;;8.50;6.05;;;16.00;74.10;;;;;;5031377;28;20057;-73
2022/08/13 02:25:20;;;;;;;7.78;5.22;;;16.00;73.90;;;;;;5030470;28;20072;-73
2022/08/13 02:27:55;;;;;;;10.05;6.00;;;16.00;73.90;;;;;;5031288;28;20061;-73
2022/08/13 02:30:24;;;;;;;7.90;6.07;;;16.00;74.40;;;;;;5033622;28;20050;-73
2022/08/13 02:32:51;;;;;;;10.13;6.18;;;16.00;74.40;;;;;;5031034;28;20057;-73
2022/08/13 02:35:19;;;;;;;7.88;5.93;;;16.00;74.70;;;;;;5031196;28;20073;-73
2022/08/13 02:37:47;;;;;;;8.43;6.40;;;16.00;74.50;;;;;;5031176;28;20785;-73
2022/08/13 02:42:58;;;;;;;10.40;5.83;;;15.90;74.70;;;;;;5028894;28;20050;-73
2022/08/13 02:45:26;;;;;;;8.90;5.72;;;15.80;74.60;;;;;;5030006;28;20097;-73
2022/08/13 02:47:53;;;;;;;8.15;5.60;;;15.80;74.50;;;;;;5030286;28;20065;-73
2022/08/13 02:50:21;;;;;;;7.55;5.45;;;15.80;74.20;;;;;;5030734;28;20054;-73
2022/08/13 02:52:49;;;;;;;7.55;5.40;;;15.80;74.10;;;;;;5029668;28;20049;-73
2022/08/13 02:55:16;;;;;;;11.50;5.90;;;15.80;74.30;;;;;;5029805;28;20057;-73
2022/08/13 02:57:43;;;;;;;8.25;5.47;;;15.80;74.40;;;;;;5031104;28;20080;-73
2022/08/13 03:00:12;;;;;;;8.10;5.68;;;15.80;74.30;;;;;;5029292;28;20056;-73
2022/08/13 03:02:44;;;;;;;7.70;5.45;;;15.70;74.30;;;;;;5029699;28;20158;-73
2022/08/13 03:05:12;;;;;;;7.88;5.28;;;15.80;74.60;;;;;;5029561;28;20054;-73
2022/08/13 03:07:40;;;;;;;7.80;5.17;;;15.70;74.70;;;;;;5029278;28;20044;-73
2022/08/13 03:10:09;;;;;;;8.38;5.18;;;15.70;74.80;;;;;;5029835;28;20125;-73
2022/08/13 03:12:37;;;;;;;8.40;5.47;;;15.60;74.80;;;;;;5033217;28;20108;-73
2022/08/13 03:15:05;;;;;;;11.98;5.68;;;15.60;74.70;;;;;;5033173;28;20057;-73
2022/08/13 03:17:33;;;;;;;37.55;7.82;;;15.60;74.40;;;;;;5032881;28;20089;-73
2022/08/13 03:20:00;;;;;;;54.93;8.70;;;15.60;74.40;;;;;;5033606;28;20054;-73
2022/08/13 03:22:27;;;;;;;24.23;6.57;;;15.60;74.40;;;;;;5031692;28;20049;-73
2022/08/13 03:24:54;;;;;;;16.00;6.15;;;15.50;74.40;;;;;;5033090;28;20046;-73
2022/08/13 03:27:22;;;;;;;12.38;6.32;;;15.50;74.50;;;;;;5032506;28;20141;-73
2022/08/13 03:29:53;;;;;;;17.30;6.43;;;15.50;74.70;;;;;;5033670;28;20153;-73
2022/08/13 03:32:20;;;;;;;13.33;5.80;;;15.50;74.70;;;;;;5032549;28;20066;-73
2022/08/13 03:34:48;;;;;;;12.15;5.47;;;15.40;74.50;;;;;;5034189;28;20057;-73
2022/08/13 03:37:15;;;;;;;11.13;5.68;;;15.40;74.80;;;;;;5034136;28;20046;-73
2022/08/13 03:39:43;;;;;;;10.60;5.93;;;15.40;74.90;;;;;;5032273;28;20480;-73
2022/08/13 03:42:10;;;;;;;8.93;6.00;;;15.40;74.70;;;;;;5034106;28;20141;-73
2022/08/13 03:44:37;;;;;;;9.30;5.73;;;15.40;74.70;;;;;;5049049;28;20056;-73
2022/08/13 03:47:04;;;;;;;10.27;5.75;;;15.40;75.00;;;;;;5033568;28;20064;-73
2022/08/13 03:49:36;;;;;;;9.57;5.80;;;15.30;75.10;;;;;;5032171;28;21066;-74
2022/08/13 03:52:05;;;;;;;9.73;5.22;;;15.30;75.00;;;;;;5033613;28;20081;-73
2022/08/13 03:54:32;;;;;;;7.47;5.22;;;15.30;74.90;;;;;;5048497;28;20073;-73
2022/08/13 03:57:00;;;;;;;8.77;6.00;;;15.20;74.70;;;;;;5032064;28;20121;-73
2022/08/13 03:59:27;;;;;;;8.75;5.60;;;15.20;74.90;;;;;;5032272;28;20057;-73
2022/08/13 04:01:54;;;;;;;10.15;5.93;;;15.10;75.00;;;;;;5032065;28;20058;-73
2022/08/13 04:04:21;;;;;;;10.07;6.15;;;15.00;75.00;;;;;;5032461;28;20201;-73
2022/08/13 04:06:48;;;;;;;7.93;5.68;;;15.00;75.10;;;;;;5032124;28;20070;-73
2022/08/13 04:09:16;;;;;;;9.77;5.80;;;15.00;75.00;;;;;;5031732;28;20061;-73
2022/08/13 04:11:43;;;;;;;11.63;5.72;;;15.00;74.90;;;;;;5032066;28;20057;-73
2022/08/13 04:14:10;;;;;;;9.20;6.15;;;15.00;75.10;;;;;;5031967;28;20046;-73
2022/08/13 04:16:37;;;;;;;7.93;6.03;;;14.90;75.30;;;;;;5032233;28;20046;-73
2022/08/13 04:19:04;;;;;;;8.23;6.00;;;14.90;75.10;;;;;;5031568;28;20046;-73
2022/08/13 04:21:31;;;;;;;8.07;5.90;;;14.90;75.20;;;;;;5031685;28;20056;-73
2022/08/13 04:23:58;;;;;;;8.77;6.10;;;14.90;75.50;;;;;;5032196;28;20066;-73
2022/08/13 04:26:27;;;;;;;7.68;6.07;;;14.80;75.50;;;;;;5032470;28;20551;-73
2022/08/13 04:28:54;;;;;;;10.85;6.10;;;14.80;75.60;;;;;;5031004;28;20161;-73
2022/08/13 04:31:21;;;;;;;8.82;6.07;;;14.80;75.40;;;;;;5033045;28;20057;-73
2022/08/13 04:33:48;;;;;;;9.30;6.07;;;14.80;75.50;;;;;;5031805;28;20146;-73
2022/08/13 04:36:16;;;;;;;8.70;5.80;;;14.80;75.70;;;;;;5032012;28;20046;-73
2022/08/13 04:38:42;;;;;;;7.82;5.57;;;14.80;76.00;;;;;;5031757;28;20085;-73
2022/08/13 04:41:10;;;;;;;8.57;5.68;;;14.80;76.00;;;;;;5031691;28;20504;-73
2022/08/13 04:43:38;;;;;;;8.45;6.07;;;14.80;76.00;;;;;;5031407;28;20053;-73
2022/08/13 04:46:05;;;;;;;7.77;5.97;;;14.80;75.80;;;;;;5032836;28;20047;-73
2022/08/13 04:48:33;;;;;;;9.20;6.10;;;14.80;76.20;;;;;;5032753;28;20054;-73
2022/08/13 04:51:00;;;;;;;7.50;5.80;;;14.80;76.00;;;;;;5031591;28;20046;-73
2022/08/13 04:53:30;;;;;;;8.95;5.57;;;14.80;76.20;;;;;;5032864;28;20057;-73
2022/08/13 04:55:57;;;;;;;9.57;5.75;;;14.80;75.90;;;;;;5031677;28;20516;-73
2022/08/13 04:58:29;;;;;;;9.03;6.00;;;14.80;76.10;;;;;;5031191;28;20420;-73
2022/08/13 05:00:57;;;;;;;8.23;5.60;;;14.80;76.30;;;;;;5031516;28;20945;-73
2022/08/13 05:03:24;;;;;;;11.48;6.05;;;14.80;76.20;;;;;;5041255;28;20053;-73
2022/08/13 05:05:53;;;;;;;9.02;5.75;;;14.90;76.40;;;;;;5038817;28;20053;-74
2022/08/13 05:08:20;;;;;;;8.18;5.55;;;14.90;76.70;;;;;;5030957;28;20887;-73
2022/08/13 05:10:51;;;;;;;8.00;5.30;;;14.90;76.70;;;;;;5031582;28;20152;-73
2022/08/13 05:13:24;;;;;;;8.93;6.03;;;14.90;76.70;;;;;;5032347;28;20054;-73
2022/08/13 05:15:51;;;;;;;7.72;5.47;;;15.00;76.70;;;;;;5030714;28;20042;-73
2022/08/13 05:18:20;;;;;;;7.72;5.38;;;15.00;76.90;;;;;;5030175;28;20050;-73
2022/08/13 05:20:48;;;;;;;7.85;5.38;;;15.00;77.00;;;;;;5030033;28;20108;-73
2022/08/13 05:23:15;;;;;;;8.17;5.10;;;15.20;77.20;;;;;;5034541;28;20057;-74
2022/08/13 05:25:43;;;;;;;7.40;4.60;;;15.20;77.10;;;;;;5041060;28;20053;-68
2022/08/13 05:28:10;;;;;;;9.25;5.28;;;15.30;77.00;;;;;;5038554;28;20046;-68
2022/08/13 05:30:38;;;;;;;7.35;5.10;;;15.30;77.10;;;;;;5040959;28;20049;-68
2022/08/13 05:33:13;;;;;;;7.68;5.50;;;15.40;77.30;;;;;;5005856;28;20579;-69
2022/08/13 05:35:42;;;;;;;7.03;5.40;;;15.50;77.10;;;;;;4982315;28;20137;-69
2022/08/13 05:38:10;;;;;;;6.88;5.00;;;15.60;77.30;;;;;;5031377;28;20156;-69
2022/08/13 05:40:38;;;;;;;8.10;5.22;;;15.60;77.30;;;;;;5025838;28;20058;-68
2022/08/13 05:43:11;;;;;;;8.00;5.15;;;15.70;77.40;;;;;;5029998;28;20046;-69
2022/08/13 05:45:38;;;;;;;7.15;5.05;;;15.80;77.50;;;;;;5013516;28;20476;-68
2022/08/13 05:48:05;;;;;;;7.17;5.10;;;15.90;77.40;;;;;;5029883;28;20484;-68
2022/08/13 05:50:33;;;;;;;7.35;5.25;;;16.00;77.30;;;;;;5024861;28;20058;-68
2022/08/13 05:53:07;;;;;;;6.60;5.22;;;16.00;77.20;;;;;;5010841;28;20572;-68
2022/08/13 05:55:35;;;;;;;8.23;5.03;;;16.10;77.60;;;;;;5016714;28;20041;-69
2022/08/13 05:58:02;;;;;;;6.53;4.78;;;16.20;77.40;;;;;;5031208;28;20084;-69
2022/08/13 06:03:27;;;;;;;6.78;5.13;;;16.40;77.50;;;;;;4967954;28;20090;-68
2022/08/13 06:05:55;;;;;;;7.60;5.30;;;16.50;77.50;;;;;;5035501;28;20085;-68
2022/08/13 06:08:29;;;;;;;7.88;5.00;;;16.60;77.80;;;;;;5020550;28;20060;-69
2022/08/13 06:10:57;;;;;;;6.75;4.95;;;16.70;77.70;;;;;;5021330;28;20135;-68
2022/08/13 06:13:25;;;;;;;7.03;4.87;;;16.80;77.30;;;;;;5024436;28;20053;-69
2022/08/13 06:15:58;;;;;;;7.18;5.10;;;16.90;77.10;;;;;;5028698;28;20054;-69
2022/08/13 06:18:27;;;;;;;7.97;4.80;;;17.00;77.00;;;;;;5029990;28;20077;-69
2022/08/13 06:20:55;;;;;;;8.23;4.60;;;17.10;77.10;;;;;;5027333;28;20053;-68
2022/08/13 06:23:24;;;;;;;7.35;4.30;;;17.20;76.80;;;;;;5029218;28;20056;-69
2022/08/13 06:25:52;;;;;;;6.87;3.70;;;17.40;76.90;;;;;;5029076;28;20137;-69
2022/08/13 06:28:21;;;;;;;5.95;3.58;;;17.50;76.10;;;;;;5027832;28;20049;-69
2022/08/13 06:30:55;;;;;;;5.35;3.55;;;17.50;75.20;;;;;;5029644;28;20512;-69
2022/08/13 06:33:22;;;;;;;5.60;3.30;;;17.70;74.50;;;;;;5030759;28;20655;-68
2022/08/13 06:35:51;;;;;;;6.32;3.53;;;17.80;73.90;;;;;;5030515;28;20060;-69
2022/08/13 06:38:21;;;;;;;5.60;3.37;;;17.90;73.60;;;;;;5030722;28;20146;-68
2022/08/13 06:40:48;;;;;;;8.10;3.47;;;18.00;73.10;;;;;;5029528;28;20069;-69
2022/08/13 06:43:18;;;;;;;6.75;3.67;;;18.10;72.80;;;;;;5029314;28;20060;-69
2022/08/13 06:45:46;;;;;;;4.78;3.13;;;18.20;72.50;;;;;;5044817;28;20597;-68
2022/08/13 06:48:14;;;;;;;4.32;3.00;;;18.40;72.20;;;;;;5029401;28;20058;-68
2022/08/13 06:50:40;;;;;;;4.73;3.10;;;18.50;71.20;;;;;;5028267;28;20126;-69
2022/08/13 06:53:09;;;;;;;5.82;3.05;;;18.60;71.20;;;;;;5028081;28;20054;-69
2022/08/13 06:55:37;;;;;;;7.85;3.22;;;18.70;71.00;;;;;;5028085;28;20546;-69
2022/08/13 06:58:06;;;;;;;5.47;3.00;;;18.90;70.80;;;;;;5028962;28;20104;-69
2022/08/13 07:00:38;;;;;;;9.93;3.22;;;19.00;70.50;;;;;;5029139;28;20108;-69
2022/08/13 07:03:06;;;;;;;5.97;2.90;;;19.10;70.10;;;;;;5021475;28;20050;-69
2022/08/13 07:05:35;;;;;;;5.05;2.85;;;19.30;69.50;;;;;;5021025;28;20366;-69
2022/08/13 07:08:04;;;;;;;5.57;2.92;;;19.40;69.10;;;;;;5019422;28;20049;-68
2022/08/13 07:10:32;;;;;;;7.85;2.80;;;19.50;68.90;;;;;;5019695;28;20046;-69
2022/08/13 07:13:00;;;;;;;5.65;2.70;;;19.70;68.70;;;;;;5015771;28;20734;-69
2022/08/13 07:15:27;;;;;;;7.50;2.87;;;19.70;68.40;;;;;;5016756;28;20058;-69
2022/08/13 07:17:57;;;;;;;5.03;2.65;;;19.90;68.10;;;;;;5014090;28;20045;-69
2022/08/13 07:20:24;;;;;;;5.95;2.50;;;20.00;67.80;;;;;;5022482;28;20132;-69
2022/08/13 07:22:53;;;;;;;4.90;2.50;;;20.10;67.70;;;;;;5036064;28;20169;-69
2022/08/13 07:25:22;;;;;;;5.28;2.70;;;20.30;67.20;;;;;;5040707;28;20050;-69
2022/08/13 07:27:51;;;;;;;4.80;2.50;;;20.50;67.00;;;;;;5021626;28;20066;-69
2022/08/13 07:30:19;;;;;;;5.15;2.20;;;20.50;66.20;;;;;;5021069;28;20120;-69
2022/08/13 07:32:46;;;;;;;4.95;2.53;;;20.70;66.10;;;;;;5019097;28;20054;-70
2022/08/13 07:35:15;;;;;;;14.65;3.20;;;20.80;66.00;;;;;;5007107;28;20056;-72
2022/08/13 07:37:42;;;;;;;6.28;2.53;;;21.00;65.80;;;;;;5029428;28;20057;-71
2022/08/13 07:40:11;;;;;;;5.70;2.43;;;21.10;65.20;;;;;;5039895;28;20053;-70
2022/08/13 07:42:39;;;;;;;5.00;2.40;;;21.30;65.00;;;;;;5040197;28;20142;-70
2022/08/13 07:45:09;;;;;;;4.68;2.63;;;21.40;64.20;;;;;;5056631;28;20471;-70
2022/08/13 07:47:38;;;;;;;4.63;2.38;;;21.60;63.60;;;;;;5040064;28;20541;-70
2022/08/13 07:50:10;;;;;;;5.25;2.20;;;21.70;63.30;;;;;;5038141;28;20194;-70
2022/08/13 07:52:39;;;;;;;5.97;2.57;;;21.90;62.90;;;;;;5052290;28;21103;-71
2022/08/13 07:55:08;;;;;;;7.63;2.28;;;22.00;62.20;;;;;;5029606;28;20746;-70
2022/08/13 07:57:39;;;;;;;5.55;2.60;;;22.20;62.20;;;;;;5048878;28;20054;-70
2022/08/13 08:00:13;;;;;;;6.00;2.42;;;22.30;62.00;;;;;;5033964;28;20124;-76
2022/08/13 08:02:41;;;;;;;5.53;2.30;;;22.50;61.40;;;;;;5049971;28;20054;-75
2022/08/13 08:05:13;;;;;;;5.00;2.20;;;22.60;61.10;;;;;;5053782;28;20048;-78
2022/08/13 08:07:41;;;;;;;6.10;2.22;;;22.80;61.00;;;;;;5032136;28;20120;-76
2022/08/13 08:10:09;;;;;;;5.07;2.15;;;23.00;60.30;;;;;;5036227;28;20193;-76
2022/08/13 08:12:37;;;;;;;18.02;3.42;;;23.10;59.30;;;;;;5062882;28;20125;-76
2022/08/13 08:15:08;;;;;;;6.40;2.55;;;23.20;59.30;;;;;;5033717;28;20065;-76
2022/08/13 08:17:35;;;;;;;5.43;2.40;;;23.30;59.40;;;;;;5048590;28;20136;-74
2022/08/13 08:20:03;;;;;;;4.03;2.20;;;23.50;59.00;;;;;;5049153;28;20049;-76
2022/08/13 08:22:30;;;;;;;4.63;1.98;;;23.60;58.00;;;;;;5060200;28;20068;-75
2022/08/13 08:24:59;;;;;;;4.63;2.20;;;23.60;57.70;;;;;;5048872;28;20252;-75
2022/08/13 08:27:26;;;;;;;5.13;2.40;;;23.80;57.30;;;;;;5047589;28;20124;-75
2022/08/13 08:29:53;;;;;;;5.00;2.30;;;23.90;57.20;;;;;;5049714;28;20057;-75
2022/08/13 08:32:21;;;;;;;4.22;2.10;;;24.00;56.50;;;;;;5050455;28;20053;-75
2022/08/13 08:34:50;;;;;;;4.25;2.25;;;24.10;56.50;;;;;;4951060;28;20049;-76
2022/08/13 08:43:00;;;;;;;3.80;2.20;;;24.50;56.20;;;;;;5030703;28;20089;-75
2022/08/13 08:45:28;;;;;;;5.03;2.20;;;24.70;55.60;;;;;;5032156;28;20053;-71
2022/08/13 08:59:13;;;;;;;4.57;2.10;;;26.00;49.70;;;;;;5037585;27;20376;-74
2022/08/13 09:01:40;;;;;;;8.30;2.58;;;26.00;49.20;;;;;;4957631;28;20042;-75
2022/08/13 09:04:08;;;;;;;4.53;2.00;;;26.00;49.50;;;;;;4961344;28;20053;-75
2022/08/13 09:06:36;;;;;;;86.50;8.82;;;26.00;49.30;;;;;;5041717;28;20140;-80
2022/08/13 09:09:06;;;;;;;6.70;2.13;;;26.10;50.30;;;;;;5044256;28;20045;-79
2022/08/13 09:11:36;;;;;;;5.13;2.17;;;26.10;50.50;;;;;;5045885;28;20152;-80
2022/08/13 09:14:07;;;;;;;3.90;2.20;;;26.20;50.00;;;;;;4947819;27;20049;-76
2022/08/13 09:16:37;;;;;;;4.75;2.38;;;26.10;49.30;;;;;;5042620;28;20554;-77
2022/08/13 09:19:07;;;;;;;4.80;2.50;;;26.10;49.50;;;;;;4993728;28;20113;-77
2022/08/13 09:21:38;;;;;;;3.67;2.30;;;26.00;49.70;;;;;;4986069;28;20063;-78
2022/08/13 09:24:06;;;;;;;6.03;2.13;;;26.00;49.70;;;;;;5063902;28;20187;-77
2022/08/13 09:26:33;;;;;;;4.15;2.13;;;26.00;49.40;;;;;;5063396;28;20049;-78
2022/08/13 09:29:01;;;;;;;4.13;2.20;;;26.00;49.40;;;;;;5066843;28;20160;-77
2022/08/13 09:31:29;;;;;;;5.13;2.30;;;26.10;48.30;;;;;;5063325;28;20049;-76
2022/08/13 09:33:58;;;;;;;3.93;2.17;;;26.10;48.60;;;;;;5065583;28;20136;-77
2022/08/13 09:36:27;;;;;;;4.55;2.28;;;26.10;48.70;;;;;;5062919;28;20522;-77
2022/08/13 09:38:55;;;;;;;4.00;2.25;;;26.10;48.00;;;;;;5065638;28;20057;-78
2022/08/13 09:41:28;;;;;;;3.60;2.38;;;26.20;47.60;;;;;;5035647;28;20102;-79
2022/08/13 09:43:57;;;;;;;5.38;2.70;;;26.30;47.30;;;;;;5074398;28;20049;-78
2022/08/13 09:46:24;;;;;;;5.87;2.47;;;26.40;48.00;;;;;;5046599;28;20046;-78
2022/08/13 09:48:51;;;;;;;5.03;2.40;;;26.40;48.10;;;;;;5064066;28;21056;-78
2022/08/13 09:51:20;;;;;;;3.25;2.30;;;26.50;47.70;;;;;;5076333;28;20049;-78
2022/08/13 09:53:47;;;;;;;6.15;2.30;;;26.50;47.60;;;;;;5071246;28;20539;-78
2022/08/13 09:56:17;;;;;;;3.35;2.40;;;26.60;48.00;;;;;;5065816;28;20092;-77
2022/08/13 09:58:45;;;;;;;13.07;2.90;;;26.60;47.80;;;;;;5070386;28;20049;-77
2022/08/13 10:01:12;;;;;;;8.98;2.55;;;26.70;47.20;;;;;;5072071;28;20100;-78
2022/08/13 10:03:40;;;;;;;3.63;2.30;;;26.70;46.90;;;;;;5070904;28;20048;-78
2022/08/13 10:06:08;;;;;;;4.93;2.50;;;26.80;46.60;;;;;;5050341;28;20501;-77
2022/08/13 10:08:37;;;;;;;4.60;2.58;;;26.90;46.80;;;;;;5056937;28;20058;-77
2022/08/13 10:11:04;;;;;;;4.47;2.20;;;26.90;46.40;;;;;;5059661;28;20132;-78
2022/08/13 10:13:32;;;;;;;3.72;2.33;;;27.00;45.50;;;;;;5068579;28;20809;-79
2022/08/13 10:15:59;;;;;;;4.47;2.17;;;27.00;45.60;;;;;;5072854;28;20960;-79
2022/08/13 10:18:28;;;;;;;3.50;2.28;;;27.10;45.80;;;;;;5073275;28;20573;-80
2022/08/13 10:20:55;;;;;;;5.03;2.28;;;27.20;45.40;;;;;;5066665;28;20049;-78
2022/08/13 10:23:22;;;;;;;4.73;2.50;;;27.20;45.00;;;;;;5051571;28;20114;-77
2022/08/13 10:25:52;;;;;;;5.22;2.40;;;27.30;45.10;;;;;;5051341;28;20452;-74
2022/08/13 10:28:23;;;;;;;4.63;2.50;;;27.40;44.60;;;;;;4959617;28;20153;-75
2022/08/13 10:30:50;;;;;;;3.80;2.30;;;27.50;44.30;;;;;;5020280;28;20145;-75
2022/08/13 10:33:18;;;;;;;4.22;2.60;;;27.50;44.40;;;;;;5020125;28;20054;-76
2022/08/13 10:35:51;;;;;;;3.80;2.20;;;27.60;44.50;;;;;;5012766;28;20043;-76
2022/08/13 10:38:19;;;;;;;4.60;2.38;;;27.70;44.70;;;;;;5010560;28;20058;-75
2022/08/13 10:40:47;;;;;;;5.50;2.80;;;27.80;44.70;;;;;;5011490;28;20050;-75
2022/08/13 10:43:16;;;;;;;5.07;2.33;;;27.90;44.30;;;;;;4922700;28;20054;-75
2022/08/13 10:45:45;;;;;;;3.65;2.15;;;27.90;44.00;;;;;;5036535;28;20509;-76
2022/08/13 10:48:13;;;;;;;4.50;2.20;;;28.00;43.40;;;;;;5010702;28;20046;-76
2022/08/13 10:50:41;;;;;;;4.30;2.40;;;28.10;42.60;;;;;;5010326;28;20101;-75
2022/08/13 10:53:08;;;;;;;3.78;2.47;;;28.20;42.20;;;;;;5010373;28;20500;-75
2022/08/13 10:55:35;;;;;;;4.10;2.30;;;28.30;42.60;;;;;;5012377;28;20050;-76
2022/08/13 10:58:03;;;;;;;3.78;2.35;;;28.30;42.30;;;;;;4930239;28;20057;-75
2022/08/13 11:00:32;;;;;;;4.20;2.37;;;28.40;42.20;;;;;;5016588;28;20050;-75
2022/08/13 11:02:59;;;;;;;4.75;2.60;;;28.50;42.80;;;;;;5037528;28;20161;-76
2022/08/13 11:05:27;;;;;;;4.18;2.65;;;28.60;42.50;;;;;;5061607;28;20476;-75
2022/08/13 11:07:54;;;;;;;12.18;3.13;;;28.60;42.30;;;;;;5031514;28;20050;-75
2022/08/13 11:10:22;;;;;;;6.10;2.60;;;28.70;42.40;;;;;;5033233;28;20542;-74
2022/08/13 11:12:51;;;;;;;4.83;2.70;;;28.80;41.70;;;;;;5041973;28;20059;-75
2022/08/13 11:15:20;;;;;;;5.43;2.65;;;28.90;41.70;;;;;;5047580;28;20047;-74
2022/08/13 11:17:50;;;;;;;4.15;2.70;;;28.90;41.60;;;;;;5030012;28;20140;-76
2022/08/13 11:20:19;;;;;;;4.43;2.40;;;29.00;41.30;;;;;;5029953;28;20997;-76
2022/08/13 11:22:49;;;;;;;3.65;2.60;;;29.00;41.70;;;;;;5030411;28;20058;-75
2022/08/13 11:25:16;;;;;;;3.40;2.60;;;29.10;41.50;;;;;;5030348;28;20049;-76
2022/08/13 11:27:43;;;;;;;4.57;2.42;;;29.20;41.60;;;;;;5032192;28;20104;-75
2022/08/13 11:30:11;;;;;;;4.30;2.60;;;29.30;41.50;;;;;;5027545;28;20062;-75
2022/08/13 11:32:38;;;;;;;4.10;2.67;;;29.30;41.60;;;;;;5031084;28;20054;-76
2022/08/13 11:35:08;;;;;;;3.25;2.70;;;29.40;41.30;;;;;;5030913;28;20050;-77
2022/08/13 11:37:35;;;;;;;3.83;2.37;;;29.50;40.00;;;;;;5031743;28;20056;-77
2022/08/13 11:40:03;;;;;;;5.72;2.40;;;29.50;40.60;;;;;;5030204;28;20046;-76
2022/08/13 11:42:30;;;;;;;9.60;2.90;;;29.60;41.00;;;;;;5033151;28;20574;-79
2022/08/13 11:44:57;;;;;;;4.18;2.42;;;29.70;41.10;;;;;;5031968;28;20516;-77
2022/08/13 11:47:24;;;;;;;5.65;2.42;;;29.70;40.70;;;;;;5018355;28;20141;-77
2022/08/13 11:49:51;;;;;;;3.27;2.30;;;29.80;39.10;;;;;;5033466;28;20049;-77
2022/08/13 11:52:20;;;;;;;3.58;2.38;;;29.90;38.30;;;;;;5030075;28;20143;-78
2022/08/13 11:54:47;;;;;;;3.75;2.58;;;30.00;38.60;;;;;;5018253;28;20037;-76
2022/08/13 11:57:14;;;;;;;3.58;2.45;;;30.00;39.20;;;;;;5036463;28;20046;-77
2022/08/13 11:59:41;;;;;;;3.70;2.75;;;30.10;39.10;;;;;;4984345;27;20142;-77
2022/08/13 12:02:08;;;;;;;3.67;2.30;;;30.10;39.20;;;;;;5019673;28;20832;-77
2022/08/13 12:04:36;;;;;;;5.25;2.40;;;30.20;39.20;;;;;;5042730;28;20045;-77
2022/08/13 12:07:04;;;;;;;3.50;2.70;;;30.30;38.40;;;;;;5030602;28;20527;-77
2022/08/13 12:09:32;;;;;;;4.55;2.30;;;30.30;37.50;;;;;;5028914;28;20042;-78
2022/08/13 12:11:59;;;;;;;4.43;2.42;;;30.40;36.80;;;;;;5029963;28;20056;-77
2022/08/13 12:14:26;;;;;;;3.60;2.70;;;30.50;37.20;;;;;;5011526;28;20060;-77
2022/08/13 12:16:53;;;;;;;3.75;2.50;;;30.50;37.00;;;;;;5004122;28;20053;-77
2022/08/13 12:19:20;;;;;;;4.40;2.70;;;30.50;37.50;;;;;;5031061;28;20056;-78
2022/08/13 12:21:46;;;;;;;4.55;3.03;;;30.50;37.80;;;;;;5031493;28;20084;-78
2022/08/13 12:24:13;;;;;;;4.50;2.70;;;30.50;37.80;;;;;;5030056;28;20084;-78
2022/08/13 12:26:41;;;;;;;3.87;2.40;;;30.60;38.50;;;;;;5031492;28;20084;-78
2022/08/13 12:29:08;;;;;;;5.60;2.55;;;30.70;38.70;;;;;;5029943;28;20054;-77
2022/08/13 12:31:35;;;;;;;5.28;2.58;;;30.70;38.90;;;;;;5031354;28;20493;-78
2022/08/13 12:34:02;;;;;;;4.22;2.45;;;30.80;38.70;;;;;;5029524;28;20081;-78
2022/08/13 12:36:29;;;;;;;3.80;2.45;;;30.90;38.30;;;;;;5030229;28;20164;-77
2022/08/13 12:38:56;;;;;;;5.07;2.60;;;31.00;38.10;;;;;;5030770;28;20066;-77
2022/08/13 12:41:23;;;;;;;4.65;2.60;;;31.10;38.50;;;;;;5030008;28;20144;-77
2022/08/13 12:43:51;;;;;;;3.63;2.67;;;31.10;38.30;;;;;;5029631;28;20046;-77
2022/08/13 12:46:18;;;;;;;4.57;2.70;;;31.30;38.30;;;;;;5029700;28;20045;-77
2022/08/13 12:48:45;;;;;;;3.20;2.30;;;31.30;37.70;;;;;;5028742;23;20130;-77
2022/08/13 12:51:11;;;;;;;4.03;2.43;;;31.40;37.40;;;;;;4970803;28;20051;-77
2022/08/13 12:53:38;;;;;;;3.60;2.80;;;31.40;37.50;;;;;;4972407;28;20057;-78
2022/08/13 12:56:05;;;;;;;3.42;2.50;;;31.50;37.60;;;;;;4970964;28;20083;-77
2022/08/13 12:58:32;;;;;;;6.25;2.97;;;31.50;37.70;;;;;;4972255;28;20055;-78
2022/08/13 13:01:01;;;;;;;10.95;3.33;;;31.50;37.30;;;;;;4970757;28;20056;-78
2022/08/13 13:03:28;;;;;;;12.43;3.33;;;31.60;36.70;;;;;;4970748;28;20060;-78
2022/08/13 13:05:56;;;;;;;4.95;2.78;;;31.70;36.60;;;;;;4970482;28;20090;-77
2022/08/13 13:08:25;;;;;;;3.70;2.80;;;31.70;36.80;;;;;;4970727;28;20053;-78
2022/08/13 13:10:53;;;;;;;5.22;2.80;;;31.80;37.00;;;;;;4947630;28;20501;-78
2022/08/13 13:13:22;;;;;;;4.27;3.03;;;31.90;37.00;;;;;;4990048;28;20050;-77
2022/08/13 13:15:50;;;;;;;4.82;3.08;;;31.90;35.90;;;;;;5006472;28;20362;-80
2022/08/13 13:18:20;;;;;;;3.45;2.80;;;32.00;35.90;;;;;;5004967;28;20465;-76